Time;durP1;ratioP1;P1;durP2;ratioP2;P2;SDS_P1;SDS_P2;PMS_P1;PMS_P2;Temp;Humidity;BMP_temperature;BMP_pressure;BME280_temperature;BME280_humidity;BME280_pressure;Samples;Min_cycle;Max_cycle;Signal;HPM_P1;HPM_P2
2024/01/09 00:01:55;;;;;;;4.25;2.17;;;;;;;17.75;21.74;103071.66;16121068;19;130575;-62
2024/01/09 00:07:17;;;;;;;5.95;2.20;;;;;;;17.67;21.64;103073.44;16121577;19;131560;-63
2024/01/09 00:12:39;;;;;;;4.07;2.15;;;;;;;17.61;21.67;103067.78;16123886;19;130072;-63
2024/01/09 00:18:01;;;;;;;3.83;2.13;;;;;;;17.50;21.82;103067.16;16120176;19;131475;-63
2024/01/09 00:23:23;;;;;;;3.85;1.80;;;;;;;17.45;21.59;103074.31;16119959;19;130801;-63
2024/01/09 00:28:45;;;;;;;2.80;1.92;;;;;;;17.38;21.37;103079.72;16120847;19;129572;-63
2024/01/09 00:34:08;;;;;;;2.63;1.92;;;;;;;17.30;21.59;103077.03;16120714;19;131420;-63
2024/01/09 00:39:30;;;;;;;2.53;1.90;;;;;;;17.26;21.64;103076.53;16118671;19;130724;-63
2024/01/09 00:44:51;;;;;;;4.35;2.15;;;;;;;17.21;21.70;103079.88;16119608;19;134416;-63
2024/01/09 00:50:13;;;;;;;3.85;2.28;;;;;;;17.16;21.72;103074.00;16118569;19;131061;-63
2024/01/09 00:55:35;;;;;;;3.47;1.80;;;;;;;17.11;21.32;103072.84;16120440;19;129922;-63
2024/01/09 01:00:57;;;;;;;3.78;1.90;;;;;;;17.05;21.27;103071.69;16117660;19;129598;-63
2024/01/09 01:06:19;;;;;;;2.38;1.80;;;;;;;17.00;21.78;103076.88;16118062;19;129492;-63
2024/01/09 01:11:41;;;;;;;3.78;2.30;;;;;;;16.97;21.36;103077.28;16116070;19;131233;-63
2024/01/09 01:17:03;;;;;;;4.88;2.30;;;;;;;16.92;21.71;103075.06;16118955;19;129571;-63
2024/01/09 01:22:25;;;;;;;4.10;2.15;;;;;;;16.86;21.51;103065.56;16118586;19;130077;-63
2024/01/09 01:27:47;;;;;;;2.35;1.70;;;;;;;16.82;21.48;103079.94;16117515;19;129623;-63
2024/01/09 01:33:10;;;;;;;2.65;1.98;;;;;;;16.78;21.53;103073.91;16115497;19;131328;-63
2024/01/09 01:38:32;;;;;;;2.33;1.70;;;;;;;16.72;21.65;103075.50;16117314;19;135420;-62
2024/01/09 01:43:54;;;;;;;2.88;2.17;;;;;;;16.70;21.35;103065.66;16114419;19;130898;-63
2024/01/09 01:49:19;;;;;;;3.42;2.05;;;;;;;16.67;21.50;103061.38;16116789;19;129948;-63
2024/01/09 01:54:41;;;;;;;4.28;1.92;;;;;;;16.62;21.55;103061.84;16111168;19;131602;-64
2024/01/09 02:00:04;;;;;;;3.20;2.20;;;;;;;16.59;21.76;103070.53;16111118;19;130641;-63
2024/01/09 02:05:28;;;;;;;2.92;2.00;;;;;;;16.56;21.55;103072.75;16113403;19;130782;-63
2024/01/09 02:10:51;;;;;;;1.92;1.63;;;;;;;16.54;21.64;103070.19;16114433;19;130489;-63
2024/01/09 02:16:13;;;;;;;2.90;1.80;;;;;;;16.52;21.36;103065.91;16111453;19;129933;-63
2024/01/09 02:21:34;;;;;;;3.30;2.00;;;;;;;16.49;21.51;103063.50;16112400;19;130158;-63
2024/01/09 02:27:10;;;;;;;2.70;2.00;;;;;;;16.46;21.59;103054.50;16113545;19;129519;-63
2024/01/09 02:32:33;;;;;;;3.05;1.80;;;;;;;16.42;21.44;103066.09;16112695;19;130009;-64
2024/01/09 02:37:55;;;;;;;2.95;2.03;;;;;;;16.39;21.73;103060.94;16110769;19;131042;-64
2024/01/09 02:43:17;;;;;;;3.50;1.88;;;;;;;16.36;21.44;103051.09;16113506;19;132466;-63
2024/01/09 02:48:39;;;;;;;3.67;1.98;;;;;;;16.35;21.62;103045.78;16105167;19;131107;-64
2024/01/09 02:54:01;;;;;;;3.63;1.90;;;;;;;16.33;21.58;103048.69;16109420;19;129363;-64
2024/01/09 02:59:25;;;;;;;1.70;1.45;;;;;;;16.29;21.40;103039.06;16107224;19;129307;-64
2024/01/09 03:04:47;;;;;;;3.33;2.03;;;;;;;16.26;21.32;103045.78;16106436;19;129312;-63
2024/01/09 03:10:09;;;;;;;2.95;1.90;;;;;;;16.24;21.67;103042.38;16110296;19;130594;-63
2024/01/09 03:15:31;;;;;;;1.88;1.48;;;;;;;16.21;21.57;103051.00;16109878;19;131414;-63
2024/01/09 03:20:53;;;;;;;2.50;1.83;;;;;;;16.20;21.72;103043.75;16107541;19;129727;-65
2024/01/09 03:26:15;;;;;;;4.63;2.13;;;;;;;16.17;21.58;103041.34;16108943;19;129530;-64
2024/01/09 03:31:37;;;;;;;3.10;1.80;;;;;;;16.14;21.39;103038.91;16104831;19;129768;-63
2024/01/09 03:36:59;;;;;;;2.53;1.85;;;;;;;16.12;21.54;103041.88;16102296;19;130322;-64
2024/01/09 03:42:21;;;;;;;2.95;1.77;;;;;;;16.09;21.30;103038.63;16103623;19;130258;-64
2024/01/09 03:47:43;;;;;;;2.33;1.80;;;;;;;16.08;21.47;103045.16;16107533;19;130377;-64
2024/01/09 03:53:05;;;;;;;2.58;1.70;;;;;;;16.05;21.74;103029.81;16105716;19;130622;-64
2024/01/09 03:58:27;;;;;;;2.85;1.75;;;;;;;16.05;21.80;103034.47;16103945;19;130462;-65
2024/01/09 04:03:49;;;;;;;2.33;1.83;;;;;;;16.03;21.69;103028.25;16106769;19;130243;-64
2024/01/09 04:09:12;;;;;;;2.28;1.85;;;;;;;16.00;21.49;103022.06;16106815;19;129454;-63
2024/01/09 04:14:34;;;;;;;3.22;1.88;;;;;;;15.97;21.59;103033.47;16108274;19;130199;-63
2024/01/09 04:19:58;;;;;;;2.03;1.50;;;;;;;15.96;21.59;103031.75;16116348;19;131893;-63
2024/01/09 04:25:20;;;;;;;3.08;2.03;;;;;;;15.93;21.45;103021.03;16119832;19;130471;-62
2024/01/09 04:30:42;;;;;;;2.78;1.80;;;;;;;15.90;21.55;103015.88;16120425;19;131231;-62
2024/01/09 04:36:04;;;;;;;2.78;1.85;;;;;;;15.90;21.75;103026.91;16116877;19;130149;-63
2024/01/09 04:41:26;;;;;;;2.72;2.00;;;;;;;15.89;21.65;103024.34;16119329;19;129516;-62
2024/01/09 04:46:48;;;;;;;2.30;1.67;;;;;;;15.87;21.60;103027.28;16117397;19;130501;-63
2024/01/09 04:52:10;;;;;;;2.42;1.65;;;;;;;15.84;21.66;103022.97;16118311;19;131192;-63
2024/01/09 04:57:32;;;;;;;3.80;2.17;;;;;;;15.82;21.35;103025.03;16119256;19;130486;-63
2024/01/09 05:02:54;;;;;;;3.40;2.08;;;;;;;15.81;21.82;103027.97;16114610;19;129732;-63
2024/01/09 05:08:16;;;;;;;2.78;1.98;;;;;;;15.78;21.34;103029.19;16115665;19;130616;-63
2024/01/09 05:13:38;;;;;;;2.17;1.58;;;;;;;15.78;21.30;103029.19;16112979;19;131988;-62
2024/01/09 05:19:00;;;;;;;1.75;1.58;;;;;;;15.76;21.42;103030.38;16117544;19;131362;-62
2024/01/09 05:24:22;;;;;;;1.52;1.42;;;;;;;15.74;21.40;103038.84;16114419;19;130912;-63
2024/01/09 05:29:44;;;;;;;3.03;1.70;;;;;;;15.73;21.30;103036.25;16114396;19;129660;-62
2024/01/09 05:35:08;;;;;;;3.05;2.00;;;;;;;15.69;21.72;103031.06;16113391;19;131262;-63
2024/01/09 05:40:30;;;;;;;4.65;1.67;;;;;;;15.68;21.38;103037.63;16113167;19;129616;-62
2024/01/09 05:45:52;;;;;;;2.30;1.90;;;;;;;15.66;21.62;103025.91;16111911;19;134312;-62
2024/01/09 05:51:14;;;;;;;2.40;2.08;;;;;;;15.66;21.48;103019.53;16117044;19;129700;-62
2024/01/09 05:56:37;;;;;;;2.22;1.83;;;;;;;15.65;21.30;103024.16;16113159;19;129876;-63
2024/01/09 06:01:59;;;;;;;3.38;2.20;;;;;;;15.64;21.59;103027.13;16110331;19;130481;-63
2024/01/09 06:07:20;;;;;;;2.22;1.60;;;;;;;15.63;21.73;103031.75;16112485;19;129517;-62
2024/01/09 06:12:42;;;;;;;5.43;1.90;;;;;;;15.81;21.40;103041.78;16111327;19;129648;-62
2024/01/09 06:18:05;;;;;;;4.40;1.90;;;;;;;16.11;21.44;103022.72;16105212;19;131193;-62
2024/01/09 06:23:27;;;;;;;1.85;1.55;;;;;;;16.46;21.14;103035.16;16114892;19;130783;-61
2024/01/09 06:28:49;;;;;;;3.78;1.80;;;;;;;16.80;21.29;103032.28;16112543;19;129640;-61
2024/01/09 06:34:11;;;;;;;1.77;1.45;;;;;;;17.16;20.82;103037.22;16112292;19;131818;-63
2024/01/09 06:39:35;;;;;;;3.53;1.83;;;;;;;17.49;20.76;103040.53;16115022;19;129604;-62
2024/01/09 06:44:57;;;;;;;2.90;1.55;;;;;;;17.83;20.83;103035.56;16117109;19;130851;-63
2024/01/09 06:50:19;;;;;;;3.03;1.67;;;;;;;18.13;20.75;103050.31;16114580;19;129306;-63
2024/01/09 06:55:57;;;;;;;2.08;1.40;;;;;;;18.29;20.36;103045.63;16115603;19;133460;-63
2024/01/09 07:01:19;;;;;;;2.45;1.70;;;;;;;18.35;20.39;103053.16;16109223;19;131295;-64
2024/01/09 07:06:42;;;;;;;3.45;1.63;;;;;;;18.40;20.37;103050.69;16110303;19;129812;-62
2024/01/09 07:12:05;;;;;;;2.78;1.95;;;;;;;18.36;20.27;103054.03;16107352;19;130144;-61
2024/01/09 07:17:27;;;;;;;2.13;1.77;;;;;;;18.30;20.07;103050.97;16105408;19;131174;-61
2024/01/09 07:22:49;;;;;;;2.65;1.83;;;;;;;18.22;20.51;103062.16;16106841;19;131482;-62
2024/01/09 07:28:25;;;;;;;2.83;1.90;;;;;;;18.15;20.33;103067.59;16109745;19;129661;-61
2024/01/09 07:33:50;;;;;;;5.03;1.85;;;;;;;18.14;20.44;103068.66;16104184;19;129419;-61
2024/01/09 07:39:12;;;;;;;2.67;1.92;;;;;;;18.22;20.20;103069.59;16105365;19;129727;-62
2024/01/09 07:44:35;;;;;;;3.30;1.75;;;;;;;18.30;20.33;103075.06;16106075;19;131142;-63
2024/01/09 07:49:57;;;;;;;5.15;1.80;;;;;;;18.38;20.23;103085.19;16111036;19;131795;-63
2024/01/09 07:55:19;;;;;;;3.67;2.03;;;;;;;18.45;20.20;103086.16;16116015;19;129868;-64
2024/01/09 08:00:41;;;;;;;5.50;1.70;;;;;;;18.51;19.88;103085.41;16118991;19;130448;-64
2024/01/09 08:06:03;;;;;;;3.00;1.83;;;;;;;18.56;20.00;103082.03;16115925;19;130472;-64
2024/01/09 08:11:25;;;;;;;2.10;1.67;;;;;;;18.59;19.65;103078.84;16118859;19;130292;-65
2024/01/09 08:16:47;;;;;;;4.53;1.95;;;;;;;18.61;20.10;103080.41;16121510;19;129561;-65
2024/01/09 08:22:09;;;;;;;4.20;2.33;;;;;;;18.63;19.91;103073.81;16117382;19;129408;-64
2024/01/09 08:27:31;;;;;;;3.45;1.92;;;;;;;18.64;19.61;103079.16;16121108;19;129672;-65
2024/01/09 08:32:53;;;;;;;4.28;2.03;;;;;;;18.62;19.82;103081.25;16119825;19;129663;-66
2024/01/09 08:38:15;;;;;;;3.22;2.00;;;;;;;18.55;19.76;103081.16;16119034;19;129737;-65
2024/01/09 08:43:37;;;;;;;3.10;2.10;;;;;;;18.45;19.51;103089.81;16120084;19;131897;-64
2024/01/09 08:49:00;;;;;;;3.35;2.00;;;;;;;18.35;19.84;103091.94;16114006;19;129662;-64
2024/01/09 08:54:23;;;;;;;2.00;1.80;;;;;;;18.25;19.62;103096.91;16114508;19;130193;-65
2024/01/09 08:59:45;;;;;;;7.60;2.30;;;;;;;18.13;19.86;103091.84;16115407;19;131548;-64
2024/01/09 09:05:08;;;;;;;4.63;2.35;;;;;;;18.02;19.42;103103.41;16114455;19;129153;-64
2024/01/09 09:10:30;;;;;;;2.92;2.33;;;;;;;17.88;19.45;103110.66;16114301;19;130185;-64
2024/01/09 09:15:52;;;;;;;4.43;2.47;;;;;;;17.80;19.36;103110.69;16113199;19;132785;-64
2024/01/09 09:21:16;;;;;;;2.85;2.10;;;;;;;17.70;19.44;103108.22;16113939;19;130307;-65
2024/01/09 09:26:38;;;;;;;3.77;2.33;;;;;;;17.64;19.38;103100.66;16113305;19;130736;-64
2024/01/09 09:32:00;;;;;;;3.45;2.13;;;;;;;17.58;19.61;103106.94;16113736;19;129419;-63
2024/01/09 09:37:22;;;;;;;3.88;2.50;;;;;;;17.56;19.63;103112.66;16108844;19;131379;-64
2024/01/09 09:42:50;;;;;;;3.13;2.25;;;;;;;17.66;19.74;103121.53;16113841;19;129295;-64
2024/01/09 09:48:15;;;;;;;4.07;2.60;;;;;;;17.79;19.71;103114.50;16116368;19;129560;-64
2024/01/09 09:53:37;;;;;;;4.28;2.25;;;;;;;17.91;19.80;103118.56;16111170;19;130729;-64
2024/01/09 09:58:59;;;;;;;2.65;2.40;;;;;;;18.04;19.87;103112.38;16110872;19;129804;-65
2024/01/09 10:04:49;;;;;;;3.42;2.03;;;;;;;18.17;19.63;103106.19;16113320;19;129395;-65
2024/01/09 10:10:13;;;;;;;2.45;1.88;;;;;;;18.25;19.84;103108.88;16109375;19;130135;-64
2024/01/09 10:15:54;;;;;;;4.03;2.22;;;;;;;18.35;19.47;103105.78;16110108;19;130093;-65
2024/01/09 10:21:17;;;;;;;4.20;2.15;;;;;;;18.45;19.40;103100.88;16113148;19;129736;-65
2024/01/09 10:26:40;;;;;;;3.28;2.33;;;;;;;18.53;19.77;103093.50;16107013;19;129079;-64
2024/01/09 10:32:07;;;;;;;4.90;2.20;;;;;;;18.61;19.54;103091.50;16110762;19;129813;-64
2024/01/09 10:37:33;;;;;;;3.22;2.20;;;;;;;18.70;19.39;103072.84;16107319;19;129658;-63
2024/01/09 10:42:55;;;;;;;2.70;2.17;;;;;;;18.75;19.64;103067.56;16111510;19;131272;-63
2024/01/09 10:48:20;;;;;;;2.47;2.15;;;;;;;18.80;19.66;103072.50;16110863;19;130735;-62
2024/01/09 10:53:45;;;;;;;2.87;2.00;;;;;;;18.85;19.71;103069.16;16109317;19;129509;-64
2024/01/09 10:59:10;;;;;;;2.10;1.90;;;;;;;18.88;19.69;103063.22;16106500;19;131060;-64
2024/01/09 11:04:31;;;;;;;2.33;1.90;;;;;;;;;;16106137;19;130713;-64
2024/01/09 11:09:54;;;;;;;3.85;2.30;;;;;;;18.96;19.28;103053.91;16106485;19;129993;-64
2024/01/09 11:15:29;;;;;;;2.00;1.80;;;;;;;19.01;19.34;103041.19;16109006;19;129568;-63
2024/01/09 11:21:01;;;;;;;3.30;1.95;;;;;;;19.03;19.43;103033.53;16105608;19;129510;-63
2024/01/09 11:26:27;;;;;;;2.40;2.00;;;;;;;19.04;19.45;103023.28;16116883;19;131660;-65
2024/01/09 11:31:48;;;;;;;;;;;;;;;19.04;19.68;103017.72;16120550;19;129921;-67
2024/01/09 11:37:18;;;;;;;3.17;1.90;;;;;;;19.08;19.36;103008.81;16121967;19;129632;-65
2024/01/09 11:42:50;;;;;;;2.80;2.25;;;;;;;19.11;19.59;102996.47;16122380;19;130127;-66
2024/01/09 11:48:12;;;;;;;2.40;2.00;;;;;;;19.15;19.70;102991.38;16122650;19;130075;-69
2024/01/09 11:53:36;;;;;;;2.45;1.75;;;;;;;19.17;19.39;102990.09;16122364;19;130199;-69
2024/01/09 11:58:58;;;;;;;2.35;1.80;;;;;;;19.17;19.18;102976.22;16115602;19;129783;-70
2024/01/09 12:04:22;;;;;;;2.58;2.20;;;;;;;19.18;19.35;102980.72;16119244;19;129608;-70
2024/01/09 12:09:47;;;;;;;4.95;2.20;;;;;;;19.16;19.30;102971.75;16115814;19;130314;-69
2024/01/09 12:15:09;;;;;;;3.00;1.90;;;;;;;19.13;19.14;102971.28;16114723;19;132002;-60
2024/01/09 12:20:31;;;;;;;7.88;2.38;;;;;;;19.08;19.49;102958.88;16113800;19;129843;-59
2024/01/09 12:25:54;;;;;;;11.02;2.17;;;;;;;19.01;19.38;102957.97;16114929;19;130730;-59
2024/01/09 12:31:17;;;;;;;6.28;2.20;;;;;;;18.95;19.48;102963.44;16118396;19;131112;-59
2024/01/09 12:36:39;;;;;;;3.63;1.85;;;;;;;18.89;19.70;102954.00;16112566;19;129698;-59
2024/01/09 12:42:10;;;;;;;10.52;2.20;;;;;;;18.86;19.21;102932.22;16116056;19;129669;-59
2024/01/09 12:47:33;;;;;;;5.00;1.80;;;;;;;18.84;19.59;102926.00;16116022;19;132853;-59
2024/01/09 12:52:57;;;;;;;2.55;1.58;;;;;;;18.91;19.43;102924.16;16116974;19;130175;-59
2024/01/09 12:58:19;;;;;;;4.65;2.17;;;;;;;19.02;19.19;102915.28;16115421;19;129663;-59
2024/01/09 13:03:41;;;;;;;4.32;1.70;;;;;;;19.12;19.33;102906.63;16112340;19;129654;-60
2024/01/09 13:09:06;;;;;;;3.65;1.83;;;;;;;19.22;19.10;102896.06;16116724;19;130830;-59
2024/01/09 13:14:29;;;;;;;3.42;1.67;;;;;;;19.30;19.18;102895.06;16115006;19;129535;-60
2024/01/09 13:19:52;;;;;;;9.43;2.35;;;;;;;19.34;18.80;102892.72;16112938;19;129246;-59
2024/01/09 13:25:14;;;;;;;6.60;2.00;;;;;;;19.37;18.71;102889.56;16116445;19;130310;-56
2024/01/09 13:30:36;;;;;;;25.30;3.20;;;;;;;19.32;18.49;102886.50;16114539;19;131301;-57
2024/01/09 13:36:11;;;;;;;;;;;;;;;19.34;18.17;102888.03;16115298;19;130303;-60
2024/01/09 13:41:42;;;;;;;12.43;2.47;;;;;;;19.57;18.23;102884.09;16113860;19;130506;-60
2024/01/09 13:47:04;;;;;;;14.50;2.27;;;;;;;19.83;18.40;102883.38;16106854;19;130353;-60
2024/01/09 13:52:26;;;;;;;13.32;2.25;;;;;;;20.13;18.39;102876.69;16113316;19;130137;-60
2024/01/09 13:57:49;;;;;;;7.88;2.60;;;;;;;20.35;18.59;102862.63;16113852;19;129707;-60
2024/01/09 14:03:10;;;;;;;6.97;2.33;;;;;;;20.49;18.56;102869.91;16109962;19;129580;-61
2024/01/09 14:08:33;;;;;;;5.35;2.10;;;;;;;20.59;18.57;102864.78;16112243;19;130013;-61
2024/01/09 14:13:57;;;;;;;5.30;2.00;;;;;;;20.65;18.10;102856.69;16108689;19;129595;-61
2024/01/09 14:19:19;;;;;;;5.10;2.25;;;;;;;20.68;18.63;102856.22;16106989;19;131223;-61
2024/01/09 14:24:46;;;;;;;6.57;2.35;;;;;;;20.67;18.57;102860.09;16107198;19;130415;-61
2024/01/09 14:30:08;;;;;;;5.20;1.80;;;;;;;20.64;18.56;102861.38;16108370;19;129377;-61
2024/01/09 14:35:30;;;;;;;3.90;1.92;;;;;;;20.62;18.44;102871.84;16109776;19;130304;-61
2024/01/09 14:40:52;;;;;;;4.93;1.90;;;;;;;20.58;18.60;102868.63;16109126;19;131046;-61
2024/01/09 14:46:14;;;;;;;2.45;1.70;;;;;;;20.55;18.39;102862.66;16110306;19;131037;-63
2024/01/09 14:51:37;;;;;;;2.92;1.90;;;;;;;20.50;18.78;102860.50;16108426;19;129628;-60
2024/01/09 14:56:59;;;;;;;5.75;2.00;;;;;;;20.45;18.55;102858.38;16105319;19;129712;-59
2024/01/09 15:02:21;;;;;;;3.67;2.10;;;;;;;20.38;18.38;102851.09;16109631;19;131768;-58
2024/01/09 15:07:43;;;;;;;2.65;2.20;;;;;;;20.32;18.69;102841.66;16105577;19;130589;-59
2024/01/09 15:13:05;;;;;;;3.75;1.80;;;;;;;20.22;18.51;102853.19;16105665;19;129610;-59
2024/01/09 15:18:28;;;;;;;5.38;1.92;;;;;;;20.11;18.58;102863.00;16104668;19;130494;-58
2024/01/09 15:23:50;;;;;;;3.67;2.10;;;;;;;19.99;19.04;102864.66;16107512;19;130404;-59
2024/01/09 15:29:12;;;;;;;4.00;1.92;;;;;;;19.85;19.05;102863.72;16108999;19;129300;-56
2024/01/09 15:34:35;;;;;;;2.85;1.63;;;;;;;19.71;18.64;102861.94;16107522;19;130720;-59
2024/01/09 15:39:57;;;;;;;2.45;1.75;;;;;;;19.55;19.22;102852.06;16108496;19;129862;-59
2024/01/09 15:45:20;;;;;;;3.00;1.75;;;;;;;19.40;19.36;102850.25;16105919;19;130860;-59
2024/01/09 15:50:42;;;;;;;2.97;2.10;;;;;;;19.28;18.90;102861.09;16108069;19;130554;-57
2024/01/09 15:56:05;;;;;;;4.43;1.60;;;;;;;19.17;19.28;102861.63;16105533;19;130350;-58
2024/01/09 16:01:27;;;;;;;2.42;1.85;;;;;;;19.19;18.96;102863.13;16101150;19;131184;-59
2024/01/09 16:06:49;;;;;;;3.15;2.17;;;;;;;19.29;18.69;102867.47;16104607;19;129603;-58
2024/01/09 16:12:11;;;;;;;2.88;2.15;;;;;;;19.40;18.57;102871.63;16114660;19;130895;-58
2024/01/09 16:17:33;;;;;;;4.88;2.05;;;;;;;19.48;18.05;102868.66;16112215;19;129288;-59
2024/01/09 16:22:55;;;;;;;6.60;2.10;;;;;;;19.54;18.35;102878.97;16117311;19;130901;-59
2024/01/09 16:28:19;;;;;;;4.05;2.20;;;;;;;19.53;18.23;102877.25;16116169;19;136448;-58
2024/01/09 16:33:43;;;;;;;4.07;2.20;;;;;;;19.50;17.96;102884.09;16112871;19;130469;-59
2024/01/09 16:39:07;;;;;;;3.60;2.40;;;;;;;19.43;18.02;102887.88;16114130;19;131808;-56
2024/01/09 16:44:29;;;;;;;3.83;2.35;;;;;;;19.33;17.93;102891.84;16119454;19;130112;-59
2024/01/09 16:49:51;;;;;;;3.67;2.53;;;;;;;19.24;17.89;102886.69;16114263;19;131520;-59
2024/01/09 16:55:15;;;;;;;3.88;2.10;;;;;;;19.13;18.25;102883.38;16114367;19;130287;-59
2024/01/09 17:00:37;;;;;;;5.80;2.60;;;;;;;18.99;18.37;102876.84;16116712;19;130067;-57
2024/01/09 17:05:59;;;;;;;5.03;2.67;;;;;;;18.86;18.32;102879.50;16116070;19;129725;-59
2024/01/09 17:11:25;;;;;;;4.00;2.40;;;;;;;18.73;18.27;102888.59;16116359;19;129225;-59
2024/01/09 17:16:47;;;;;;;3.90;2.47;;;;;;;18.63;18.36;102883.38;16115521;19;130410;-62
2024/01/09 17:22:13;;;;;;;2.72;1.90;;;;;;;18.56;18.54;102885.22;16114845;19;131017;-59
2024/01/09 17:27:39;;;;;;;2.53;2.00;;;;;;;18.54;18.67;102884.56;16115492;19;129552;-59
2024/01/09 17:33:01;;;;;;;2.85;2.03;;;;;;;18.58;18.67;102880.34;16115229;19;130898;-59
2024/01/09 17:38:23;;;;;;;3.15;2.10;;;;;;;18.69;18.72;102888.13;16115969;19;129588;-58
2024/01/09 17:43:45;;;;;;;6.32;2.35;;;;;;;18.75;18.55;102897.56;16114473;19;129264;-61
2024/01/09 17:49:07;;;;;;;3.13;2.10;;;;;;;18.84;18.96;102903.81;16116277;19;131443;-60
2024/01/09 17:54:29;;;;;;;3.17;1.92;;;;;;;18.94;18.78;102912.69;16110463;19;130278;-60
2024/01/09 17:59:51;;;;;;;2.78;2.00;;;;;;;19.15;18.84;102903.44;16107820;19;129442;-59
2024/01/09 18:05:13;;;;;;;5.57;1.90;;;;;;;19.52;18.42;102915.25;16111165;19;131123;-60
2024/01/09 18:10:36;;;;;;;3.20;1.65;;;;;;;19.85;18.36;102916.50;16111362;19;131174;-59
2024/01/09 18:16:00;;;;;;;3.35;1.90;;;;;;;20.07;18.24;102925.59;16110678;19;130586;-60
2024/01/09 18:21:23;;;;;;;3.67;2.00;;;;;;;20.19;18.38;102920.28;16113891;19;129724;-59
2024/01/09 18:26:45;;;;;;;3.63;2.17;;;;;;;20.22;18.15;102924.59;16112539;19;129622;-60
2024/01/09 18:32:19;;;;;;;2.95;1.95;;;;;;;20.15;18.03;102913.47;16113222;19;129632;-58
2024/01/09 18:37:42;;;;;;;1.88;1.70;;;;;;;20.04;18.09;102916.84;16112877;19;131496;-59
2024/01/09 18:43:06;;;;;;;2.47;1.60;;;;;;;19.88;18.00;102916.09;16108356;19;130204;-58
2024/01/09 18:48:29;;;;;;;2.35;1.83;;;;;;;19.74;18.18;102919.88;16108645;19;129967;-59
2024/01/09 18:53:55;;;;;;;2.58;1.88;;;;;;;19.57;18.46;102914.63;16107476;19;130371;-62
2024/01/09 18:59:17;;;;;;;3.13;2.22;;;;;;;19.47;18.50;102919.69;16109633;19;129708;-62
2024/01/09 19:04:43;;;;;;;3.47;2.05;;;;;;;19.36;18.58;102916.44;16105183;19;130633;-61
2024/01/09 19:10:05;;;;;;;;;;;;;;;19.25;18.40;102905.91;16106508;19;129479;-63
2024/01/09 19:15:27;;;;;;;3.85;2.35;;;;;;;19.25;18.49;102908.66;16106456;19;129545;-62
2024/01/09 19:20:49;;;;;;;2.85;2.00;;;;;;;19.24;18.63;102906.94;16104262;19;132569;-61
2024/01/09 19:26:11;;;;;;;3.13;1.92;;;;;;;19.24;18.52;102895.84;16102065;19;131114;-62
2024/01/09 19:31:40;;;;;;;2.67;2.13;;;;;;;19.24;18.80;102912.50;16103332;19;133822;-60
2024/01/09 19:37:03;;;;;;;3.55;2.20;;;;;;;19.25;18.49;102902.28;16101241;19;129498;-59
2024/01/09 19:42:25;;;;;;;2.20;2.00;;;;;;;19.22;18.27;102893.28;16104761;19;129722;-59
2024/01/09 19:47:47;;;;;;;2.83;1.98;;;;;;;19.21;18.59;102891.56;16117293;19;130762;-58
2024/01/09 19:53:10;;;;;;;2.60;2.00;;;;;;;19.16;18.33;102893.22;16121199;19;130523;-59
2024/01/09 19:58:32;;;;;;;2.28;2.03;;;;;;;19.06;18.34;102897.19;16117184;19;134284;-59
2024/01/09 20:03:54;;;;;;;2.45;1.85;;;;;;;18.97;18.44;102901.16;16120592;19;131545;-60
2024/01/09 20:09:16;;;;;;;2.75;2.13;;;;;;;;;;16121762;19;130268;-58
2024/01/09 20:14:38;;;;;;;3.22;2.13;;;;;;;18.99;18.44;102893.50;16114685;19;129195;-59
2024/01/09 20:20:02;;;;;;;2.78;2.00;;;;;;;19.12;18.21;102902.97;16118396;19;130901;-57
2024/01/09 20:25:25;;;;;;;3.55;2.17;;;;;;;19.25;18.41;102897.56;16119210;19;130688;-59
2024/01/09 20:30:48;;;;;;;2.70;1.90;;;;;;;19.37;18.19;102906.19;16118782;19;130963;-58
2024/01/09 20:36:11;;;;;;;2.97;2.10;;;;;;;19.52;18.23;102903.31;16113381;19;129619;-59
2024/01/09 20:41:33;;;;;;;4.13;2.42;;;;;;;19.68;17.58;102891.88;16109872;19;130976;-60
2024/01/09 20:46:56;;;;;;;6.03;2.72;;;;;;;19.78;17.70;102899.78;16112674;19;130364;-59
2024/01/09 20:52:21;;;;;;;11.10;2.88;;;;;;;19.83;17.51;102904.72;16116903;19;130918;-57
2024/01/09 20:57:44;;;;;;;11.70;2.33;;;;;;;19.86;17.69;102901.53;16111345;19;129508;-59
2024/01/09 21:03:08;;;;;;;15.10;2.92;;;;;;;19.88;17.88;102896.66;16116057;19;130078;-60
2024/01/09 21:08:30;;;;;;;12.55;2.20;;;;;;;19.90;17.83;102894.53;16119471;19;130006;-60
2024/01/09 21:13:52;;;;;;;8.20;2.88;;;;;;;19.89;17.78;102903.91;16117928;19;131070;-60
2024/01/09 21:19:14;;;;;;;7.30;2.50;;;;;;;19.83;18.03;102899.19;16115688;19;129804;-59
2024/01/09 21:24:38;;;;;;;5.53;2.63;;;;;;;19.77;18.08;102900.00;16116784;19;130059;-59
2024/01/09 21:30:00;;;;;;;13.48;2.78;;;;;;;19.66;18.10;102899.53;16119444;19;130486;-59
2024/01/09 21:35:22;;;;;;;8.93;2.55;;;;;;;19.56;18.26;102898.19;16116721;19;131557;-59
2024/01/09 21:40:44;;;;;;;13.65;3.03;;;;;;;19.42;18.61;102902.81;16111607;19;130903;-59
2024/01/09 21:46:19;;;;;;;10.15;2.72;;;;;;;19.28;18.33;102897.16;16113682;19;131298;-60
2024/01/09 21:51:41;;;;;;;16.20;3.72;;;;;;;19.17;18.68;102900.47;16111867;19;129696;-58
2024/01/09 21:57:03;;;;;;;16.80;3.13;;;;;;;19.05;18.96;102900.16;16109148;19;130344;-58
2024/01/09 22:02:25;;;;;;;9.70;3.42;;;;;;;18.91;18.76;102896.41;16109553;19;129483;-59
2024/01/09 22:07:48;;;;;;;13.32;3.03;;;;;;;18.79;18.66;102909.13;16109484;19;129354;-61
2024/01/09 22:13:10;;;;;;;11.75;2.90;;;;;;;18.65;18.78;102906.22;16115197;19;129392;-58
2024/01/09 22:18:32;;;;;;;7.47;2.58;;;;;;;18.54;18.79;102902.03;16108308;19;129844;-58
2024/01/09 22:23:54;;;;;;;6.18;2.60;;;;;;;18.41;18.74;102908.31;16109396;19;129800;-58
2024/01/09 22:29:16;;;;;;;8.48;2.97;;;;;;;18.32;19.13;102903.94;16107575;19;129676;-58
2024/01/09 22:34:38;;;;;;;9.07;3.40;;;;;;;18.21;19.32;102907.22;16106588;19;129550;-58
2024/01/09 22:40:00;;;;;;;10.55;3.63;;;;;;;18.12;18.91;102901.75;16106506;19;130614;-59
2024/01/09 22:45:22;;;;;;;8.02;2.88;;;;;;;18.04;19.35;102907.44;16111130;19;129865;-58
2024/01/09 22:50:44;;;;;;;4.80;2.47;;;;;;;17.98;19.37;102906.28;16109835;19;130924;-58
2024/01/09 22:56:07;;;;;;;5.88;2.88;;;;;;;17.89;19.28;102915.75;16108311;19;130849;-58
2024/01/09 23:01:38;;;;;;;9.93;2.95;;;;;;;17.81;19.06;102916.72;16108266;19;132246;-56
2024/01/09 23:07:00;;;;;;;9.52;2.65;;;;;;;17.74;19.44;102907.44;16110934;19;129485;-58
2024/01/09 23:12:22;;;;;;;4.55;3.17;;;;;;;17.68;19.15;102913.78;16107444;19;130911;-59
2024/01/09 23:17:44;;;;;;;8.10;2.83;;;;;;;17.61;19.16;102912.81;16104696;19;130135;-58
2024/01/09 23:23:06;;;;;;;5.38;2.75;;;;;;;17.56;19.57;102912.53;16105186;19;130649;-58
2024/01/09 23:28:28;;;;;;;9.20;3.40;;;;;;;17.50;19.15;102906.66;16109106;19;129844;-58
2024/01/09 23:33:50;;;;;;;5.28;2.70;;;;;;;17.45;19.38;102898.09;16105959;19;129686;-59
2024/01/09 23:39:12;;;;;;;4.35;2.63;;;;;;;17.40;19.46;102895.03;16101967;19;135514;-58
2024/01/09 23:44:34;;;;;;;6.10;2.97;;;;;;;17.35;19.52;102890.06;16109241;19;129847;-57
2024/01/09 23:49:56;;;;;;;8.57;2.60;;;;;;;17.30;19.34;102877.84;16107972;19;129980;-58
2024/01/09 23:55:18;;;;;;;4.55;2.67;;;;;;;17.24;19.58;102872.00;16103043;19;131814;-59
